Time;durP1;ratioP1;P1;durP2;ratioP2;P2;SDS_P1;SDS_P2;PMS_P1;PMS_P2;Temp;Humidity;BMP_temperature;BMP_pressure;BME280_temperature;BME280_humidity;BME280_pressure;Samples;Min_cycle;Max_cycle;Signal;HPM_P1;HPM_P2
2021/11/29 00:01:21;;;;;;;14.77;9.83;;;2.10;99.90;;;2.28;71.86;95984.16;5047325;28;20059;-45
2021/11/29 00:03:49;;;;;;;;;;;2.00;99.90;;;2.24;71.44;95988.06;5038840;28;20041;-47
2021/11/29 00:06:17;;;;;;;15.13;8.73;;;2.00;99.90;;;2.26;71.98;95990.53;5046851;28;20246;-45
2021/11/29 00:08:47;;;;;;;19.20;11.20;;;2.00;99.90;;;2.26;71.90;95987.91;5047861;28;20076;-46
2021/11/29 00:11:16;;;;;;;18.40;10.57;;;2.00;99.90;;;2.29;71.78;95988.44;5046469;28;20057;-48
2021/11/29 00:13:44;;;;;;;15.90;9.83;;;2.00;99.90;;;2.26;72.29;95993.16;5041162;28;20061;-48
2021/11/29 00:16:12;;;;;;;19.73;10.23;;;2.00;99.90;;;2.14;72.74;95996.00;5049649;28;20259;-45
2021/11/29 00:18:41;;;;;;;18.60;10.90;;;1.90;99.90;;;2.16;72.10;96001.09;5049997;28;20406;-45
2021/11/29 00:21:11;;;;;;;17.93;11.43;;;1.90;99.90;;;2.23;71.79;95999.53;5049744;28;20059;-45
2021/11/29 00:23:40;;;;;;;19.53;11.33;;;1.90;99.90;;;2.25;72.38;96002.84;5049896;28;20045;-45
2021/11/29 00:26:08;;;;;;;19.47;11.30;;;2.00;99.90;;;2.29;71.66;96009.44;5050752;28;20041;-45
2021/11/29 00:28:42;;;;;;;21.73;12.30;;;2.00;99.90;;;2.30;72.10;96007.63;5049948;28;20341;-45
2021/11/29 00:31:11;;;;;;;18.40;11.13;;;2.00;99.90;;;2.30;72.41;96005.00;5049247;28;20053;-45
2021/11/29 00:33:39;;;;;;;21.27;10.90;;;2.00;99.90;;;2.24;72.05;96014.31;5049867;28;20064;-45
2021/11/29 00:36:07;;;;;;;20.50;11.50;;;1.90;99.90;;;2.29;72.39;96014.69;5049811;28;20049;-45
2021/11/29 00:38:36;;;;;;;17.67;11.97;;;2.00;99.90;;;2.27;72.31;96016.66;5049348;28;20060;-45
2021/11/29 00:41:04;;;;;;;21.93;12.67;;;2.00;99.90;;;2.30;72.18;96013.72;5060458;28;20071;-45
2021/11/29 00:43:32;;;;;;;23.27;13.07;;;2.00;99.90;;;2.31;72.18;96023.25;5048485;28;20060;-45
2021/11/29 00:46:00;;;;;;;21.77;12.63;;;2.10;99.90;;;2.35;72.42;96018.53;5048271;28;20061;-44
2021/11/29 00:48:29;;;;;;;21.33;12.27;;;2.10;99.90;;;2.34;71.88;96032.63;5046561;28;20049;-46
2021/11/29 00:50:57;;;;;;;22.70;12.57;;;2.00;99.90;;;2.27;72.75;96026.31;5049936;28;20059;-46
2021/11/29 00:53:25;;;;;;;22.50;13.37;;;2.00;99.90;;;2.36;71.85;96039.41;5047994;28;20064;-44
2021/11/29 00:55:53;;;;;;;22.07;12.60;;;2.10;99.90;;;2.41;71.92;96038.94;5047920;28;20052;-46
2021/11/29 00:58:21;;;;;;;22.13;12.57;;;2.10;99.90;;;2.39;72.00;96040.06;5048868;28;20053;-45
2021/11/29 01:00:49;;;;;;;23.03;13.27;;;2.10;99.90;;;2.41;72.05;96033.69;5056800;28;20052;-45
2021/11/29 01:03:17;;;;;;;19.60;12.80;;;2.10;99.90;;;2.39;72.13;96040.88;5048924;28;20257;-45
2021/11/29 01:05:45;;;;;;;24.27;13.30;;;2.10;99.90;;;2.43;71.93;96042.25;5049361;28;20063;-45
2021/11/29 01:08:13;;;;;;;23.77;13.57;;;2.20;99.90;;;2.48;71.78;96052.28;5048804;28;20063;-45
2021/11/29 01:10:42;;;;;;;28.50;13.63;;;2.20;99.90;;;2.43;71.86;96058.00;5049055;28;20057;-45
2021/11/29 01:13:10;;;;;;;25.30;13.07;;;2.10;99.90;;;2.42;72.28;96066.03;5047863;28;20060;-46
2021/11/29 01:15:39;;;;;;;24.80;13.97;;;2.20;99.90;;;2.38;72.21;96069.94;5048612;28;20254;-45
2021/11/29 01:18:11;;;;;;;21.53;12.97;;;2.10;99.90;;;2.39;72.10;96068.97;5043498;28;20071;-46
2021/11/29 01:20:42;;;;;;;20.27;12.27;;;2.10;99.90;;;2.35;72.09;96073.69;5047896;28;20048;-45
2021/11/29 01:23:11;;;;;;;23.40;13.33;;;2.10;99.90;;;2.41;72.18;96077.53;5048164;28;20041;-44
2021/11/29 01:25:41;;;;;;;23.83;13.30;;;2.10;99.90;;;2.41;72.06;96083.59;5048044;28;20377;-45
2021/11/29 01:28:10;;;;;;;23.83;12.67;;;2.10;99.90;;;2.37;72.13;96079.63;5047434;28;20048;-46
2021/11/29 01:30:38;;;;;;;26.93;13.87;;;2.10;99.90;;;2.33;71.96;96084.34;5049343;28;20255;-46
2021/11/29 01:33:06;;;;;;;24.10;13.67;;;2.00;99.90;;;2.32;72.19;96080.03;5049112;28;20053;-44
2021/11/29 01:35:34;;;;;;;24.80;14.43;;;2.00;99.90;;;2.24;72.29;96077.34;5045809;28;20253;-46
2021/11/29 01:38:03;;;;;;;24.10;12.27;;;1.90;99.90;;;2.13;72.36;96080.16;5048468;28;20049;-47
2021/11/29 01:40:32;;;;;;;25.40;13.73;;;1.80;99.90;;;2.19;72.60;96081.38;5048153;28;20057;-44
2021/11/29 01:43:19;;;;;;;21.47;12.93;;;1.90;99.90;;;2.14;72.65;96085.28;5047346;28;20383;-45
2021/11/29 01:45:52;;;;;;;21.80;12.93;;;1.80;99.90;;;2.21;72.50;96082.91;5047866;28;20044;-44
2021/11/29 01:48:22;;;;;;;20.23;12.47;;;1.90;99.90;;;2.24;72.54;96090.47;5048218;28;20063;-45
2021/11/29 01:50:57;;;;;;;20.30;12.20;;;2.00;99.90;;;2.17;72.19;96086.75;5047271;28;20071;-45
2021/11/29 01:53:28;;;;;;;21.60;13.10;;;1.90;99.90;;;2.19;72.19;96087.47;5045589;28;20052;-46
2021/11/29 01:55:58;;;;;;;20.60;13.03;;;1.90;99.90;;;2.19;72.42;96084.84;5047960;28;20048;-46
2021/11/29 01:58:33;;;;;;;21.70;13.33;;;1.90;99.90;;;2.19;72.77;96084.00;5047486;28;20052;-44
2021/11/29 02:01:08;;;;;;;21.97;12.70;;;1.90;99.90;;;2.22;73.05;96089.78;5047855;28;20056;-45
2021/11/29 02:03:37;;;;;;;21.73;11.77;;;2.00;99.90;;;2.26;72.49;96090.31;5048505;28;20274;-46
2021/11/29 02:06:05;;;;;;;21.40;12.50;;;2.00;99.90;;;2.15;72.94;96091.34;5040853;28;20246;-45
2021/11/29 02:08:34;;;;;;;20.57;12.90;;;1.90;99.90;;;2.17;72.30;96089.38;5047511;28;20322;-44
2021/11/29 02:11:02;;;;;;;22.57;12.90;;;1.90;99.90;;;2.23;72.46;96099.34;5046551;28;20573;-44
2021/11/29 02:13:30;;;;;;;21.60;13.67;;;1.90;99.90;;;2.21;72.30;96098.66;5048356;28;20056;-45
2021/11/29 02:15:58;;;;;;;22.90;13.27;;;1.90;99.90;;;1.95;73.05;96107.19;5047228;28;20057;-49
2021/11/29 02:18:34;;;;;;;21.03;13.17;;;1.70;99.90;;;2.02;72.72;96104.81;5046425;28;20056;-43
2021/11/29 02:21:14;;;;;;;22.80;13.50;;;1.70;99.90;;;2.08;72.66;96106.88;5048877;28;20067;-44
2021/11/29 02:23:47;;;;;;;21.60;13.47;;;1.70;99.90;;;2.04;72.83;96104.69;5046575;28;20048;-44
2021/11/29 02:26:18;;;;;;;20.77;12.13;;;1.80;99.90;;;2.05;72.49;96107.13;5043827;28;20055;-44
2021/11/29 02:29:01;;;;;;;22.37;12.53;;;1.80;99.90;;;2.05;72.69;96117.66;5047968;28;20227;-44
2021/11/29 02:31:35;;;;;;;21.37;11.80;;;1.80;99.90;;;2.09;72.59;96113.75;5048277;28;20059;-45
2021/11/29 02:34:10;;;;;;;18.92;11.25;;;1.80;99.90;;;2.08;72.45;96117.38;5047726;28;20270;-46
2021/11/29 02:36:40;;;;;;;19.93;11.90;;;1.80;99.90;;;2.07;72.56;96117.50;5047600;28;20091;-43
2021/11/29 02:39:10;;;;;;;20.53;11.87;;;1.70;99.90;;;2.07;72.71;96125.38;5047808;28;20317;-45
2021/11/29 02:41:39;;;;;;;20.13;12.47;;;1.80;99.90;;;1.91;72.63;96123.38;5048823;28;20059;-44
2021/11/29 02:44:08;;;;;;;21.87;12.03;;;1.70;99.90;;;1.93;72.87;96131.94;5048865;28;20360;-46
2021/11/29 02:46:36;;;;;;;19.87;11.50;;;1.70;99.90;;;1.88;73.14;96139.41;5047193;28;20041;-47
2021/11/29 02:49:06;;;;;;;20.50;10.30;;;1.60;99.90;;;1.95;72.50;96138.69;5046807;28;20079;-45
2021/11/29 02:51:48;;;;;;;22.53;12.07;;;1.70;99.90;;;1.98;72.70;96132.34;5047720;28;20052;-45
2021/11/29 02:54:23;;;;;;;22.10;11.57;;;1.70;99.90;;;2.04;72.65;96141.44;5047710;28;20257;-45
2021/11/29 02:56:59;;;;;;;16.43;10.33;;;1.80;99.90;;;2.09;72.79;96147.06;5047554;28;20059;-45
2021/11/29 02:59:32;;;;;;;16.40;10.33;;;1.80;99.90;;;2.06;72.73;96150.00;5047406;28;20087;-45
2021/11/29 03:02:09;;;;;;;18.50;10.93;;;1.80;99.90;;;2.06;72.56;96150.00;5046673;28;20067;-46
2021/11/29 03:04:39;;;;;;;17.27;10.93;;;1.80;99.90;;;2.08;72.68;96162.00;5046958;28;20291;-45
2021/11/29 03:07:08;;;;;;;18.63;11.30;;;1.80;99.90;;;2.06;72.48;96158.69;5046420;28;20352;-46
2021/11/29 03:09:37;;;;;;;17.53;11.03;;;1.80;99.90;;;2.06;72.90;96150.81;5046942;28;20347;-46
2021/11/29 03:12:05;;;;;;;19.53;12.77;;;1.80;99.90;;;2.06;72.78;96156.06;5047298;28;20065;-46
2021/11/29 03:14:34;;;;;;;18.07;11.43;;;1.80;99.90;;;2.02;72.24;96165.19;5046726;28;20063;-46
2021/11/29 03:17:04;;;;;;;23.17;11.70;;;1.70;99.90;;;2.00;72.51;96167.16;5046899;28;20052;-46
2021/11/29 03:19:35;;;;;;;22.13;12.87;;;1.70;99.90;;;2.04;72.32;96167.69;5046187;28;20286;-43
2021/11/29 03:22:10;;;;;;;19.93;12.47;;;1.70;99.90;;;2.10;72.42;96165.31;5045597;28;20247;-44
2021/11/29 03:24:46;;;;;;;21.57;11.83;;;1.90;99.90;;;2.11;72.50;96174.84;5045872;28;20055;-44
2021/11/29 03:27:15;;;;;;;18.87;11.33;;;1.90;99.90;;;2.07;72.29;96186.56;5046512;28;20044;-46
2021/11/29 03:29:48;;;;;;;20.37;12.40;;;1.90;99.90;;;2.08;72.05;96182.19;5047556;28;20177;-45
2021/11/29 03:32:19;;;;;;;23.03;13.23;;;1.80;99.90;;;1.95;72.09;96187.75;5042494;28;20611;-46
2021/11/29 03:34:48;;;;;;;21.33;12.10;;;1.70;99.90;;;1.99;72.15;96188.28;5038830;28;20059;-44
2021/11/29 03:37:19;;;;;;;23.10;12.30;;;1.60;99.90;;;1.97;72.51;96188.41;5046745;28;20060;-45
2021/11/29 03:39:46;;;;;;;21.23;12.30;;;1.70;99.90;;;2.01;72.30;96188.97;5046720;28;20063;-44
2021/11/29 03:42:14;;;;;;;16.90;10.63;;;1.70;99.90;;;2.01;72.13;96187.16;5046678;28;20052;-44
2021/11/29 03:44:42;;;;;;;20.70;12.03;;;1.80;99.90;;;2.04;72.21;96188.69;5050971;28;20250;-44
2021/11/29 03:47:10;;;;;;;18.80;11.80;;;1.70;99.90;;;2.03;72.44;96187.84;5050605;28;20059;-44
2021/11/29 03:49:38;;;;;;;20.53;11.83;;;1.80;99.90;;;2.09;72.20;96197.75;5050875;28;20063;-45
2021/11/29 03:52:06;;;;;;;18.93;11.73;;;1.80;99.90;;;2.12;72.49;96197.47;5050479;28;20067;-44
2021/11/29 03:54:34;;;;;;;20.83;13.20;;;1.90;99.90;;;2.11;71.93;96195.00;5049494;28;20056;-44
2021/11/29 03:57:03;;;;;;;20.13;11.67;;;1.80;99.90;;;2.11;72.01;96203.72;5050510;28;20191;-44
2021/11/29 03:59:31;;;;;;;22.77;12.60;;;1.80;99.90;;;2.03;72.35;96200.97;5051237;28;20059;-44
2021/11/29 04:01:58;;;;;;;21.63;12.50;;;1.80;99.90;;;2.07;72.24;96204.97;5050790;28;20059;-45
2021/11/29 04:04:26;;;;;;;21.90;11.73;;;1.80;99.90;;;2.06;72.49;96213.81;5050490;28;20049;-46
2021/11/29 04:06:54;;;;;;;20.93;11.73;;;1.80;99.90;;;2.06;72.43;96221.69;5050471;28;20079;-47
2021/11/29 04:09:22;;;;;;;22.07;12.20;;;1.80;99.90;;;1.92;72.59;96216.88;5051274;28;20327;-46
2021/11/29 04:11:50;;;;;;;18.77;11.50;;;1.70;99.90;;;1.83;72.92;96223.81;5049326;28;20228;-46
2021/11/29 04:14:18;;;;;;;21.93;12.57;;;1.60;99.90;;;1.83;72.93;96223.81;5049170;28;20359;-49
2021/11/29 04:16:46;;;;;;;20.77;13.17;;;1.60;99.90;;;1.83;72.56;96218.56;5050450;28;20067;-45
2021/11/29 04:19:14;;;;;;;23.13;12.13;;;1.60;99.90;;;1.85;72.79;96237.63;5049673;28;20060;-46
2021/11/29 04:21:43;;;;;;;23.17;12.87;;;1.60;99.90;;;1.85;72.37;96229.75;5050615;28;20404;-47
2021/11/29 04:24:12;;;;;;;23.07;12.10;;;1.60;99.90;;;1.87;72.92;96234.88;5050299;28;20056;-45
2021/11/29 04:26:41;;;;;;;20.27;11.77;;;1.60;99.90;;;1.88;72.98;96240.00;5050297;28;20053;-45
2021/11/29 04:29:19;;;;;;;21.90;12.13;;;1.60;99.90;;;1.94;72.81;96238.59;5049206;28;20049;-47
2021/11/29 04:31:47;;;;;;;23.70;12.03;;;1.70;99.90;;;1.93;73.02;96243.00;5049894;28;20053;-47
2021/11/29 04:34:16;;;;;;;18.97;11.80;;;1.70;99.90;;;1.87;73.00;96248.00;5046122;28;20055;-45
2021/11/29 04:36:44;;;;;;;19.50;11.93;;;1.60;99.90;;;1.79;72.60;96246.06;5050562;28;20063;-46
2021/11/29 04:39:13;;;;;;;23.53;12.10;;;1.60;99.90;;;1.88;73.00;96249.63;5048520;28;20061;-46
2021/11/29 04:41:41;;;;;;;21.10;12.80;;;1.60;99.90;;;1.92;73.04;96251.84;5050195;28;20266;-45
2021/11/29 04:44:09;;;;;;;20.37;12.07;;;1.70;99.90;;;1.91;73.16;96254.63;5048837;28;20057;-46
2021/11/29 04:46:37;;;;;;;18.57;11.77;;;1.70;99.90;;;1.88;72.86;96255.72;5050098;28;20079;-44
2021/11/29 04:49:05;;;;;;;17.93;11.13;;;1.70;99.90;;;1.84;72.69;96257.00;5049759;28;20041;-45
2021/11/29 04:51:34;;;;;;;19.93;10.73;;;1.60;99.90;;;1.90;72.97;96255.56;5050740;28;20045;-45
2021/11/29 04:54:02;;;;;;;20.83;12.30;;;1.70;99.90;;;1.85;73.26;96257.81;5047914;28;20052;-47
2021/11/29 04:56:31;;;;;;;17.17;10.73;;;1.70;99.90;;;1.89;73.07;96262.63;5048656;28;20056;-44
2021/11/29 04:58:59;;;;;;;22.07;11.07;;;1.70;99.90;;;1.87;73.00;96271.63;5048606;28;20053;-46
2021/11/29 05:01:27;;;;;;;21.83;12.27;;;1.70;99.90;;;1.90;73.03;96277.41;5048411;28;20048;-45
2021/11/29 05:03:55;;;;;;;21.17;12.83;;;1.70;99.90;;;1.89;73.04;96278.38;5048801;28;20051;-46
2021/11/29 05:06:23;;;;;;;21.40;12.43;;;1.70;99.90;;;1.85;73.41;96284.06;5048025;28;20055;-44
2021/11/29 05:08:51;;;;;;;19.37;11.53;;;1.60;99.90;;;1.79;73.12;96285.44;5048329;28;20057;-45
2021/11/29 05:11:19;;;;;;;22.03;12.00;;;1.60;99.90;;;1.75;73.32;96287.50;5049594;28;20053;-45
2021/11/29 05:13:47;;;;;;;18.80;11.53;;;1.50;99.90;;;1.76;73.64;96290.94;5048374;28;20041;-47
2021/11/29 05:16:15;;;;;;;19.17;11.40;;;1.50;99.90;;;1.77;73.55;96300.50;5049103;28;20049;-45
2021/11/29 05:18:44;;;;;;;20.13;10.90;;;1.50;99.90;;;1.77;73.25;96298.69;5049470;28;20063;-45
2021/11/29 05:21:12;;;;;;;19.63;10.70;;;1.60;99.90;;;1.83;73.50;96299.94;5045186;28;20055;-44
2021/11/29 05:23:39;;;;;;;25.17;11.73;;;1.60;99.90;;;1.87;73.12;96303.09;5048954;28;20049;-45
2021/11/29 05:26:07;;;;;;;19.23;10.80;;;1.70;99.90;;;1.83;73.42;96310.44;5048831;28;20053;-47
2021/11/29 05:28:36;;;;;;;16.30;9.57;;;1.60;99.90;;;1.80;73.21;96313.31;5048601;28;20377;-45
2021/11/29 05:31:04;;;;;;;19.73;10.90;;;1.60;99.90;;;1.81;73.25;96315.00;5050061;28;20259;-45
2021/11/29 05:33:32;;;;;;;20.83;11.57;;;1.60;99.90;;;1.83;73.32;96317.47;5048764;28;20239;-47
2021/11/29 05:36:00;;;;;;;15.80;10.37;;;1.60;99.90;;;1.69;73.41;96326.59;5048698;28;20060;-47
2021/11/29 05:38:29;;;;;;;20.83;11.43;;;1.50;99.90;;;1.76;73.34;96328.53;5049233;28;20057;-45
2021/11/29 05:40:56;;;;;;;21.80;11.53;;;1.60;99.90;;;1.76;73.18;96328.53;5042920;28;20337;-45
2021/11/29 05:43:24;;;;;;;21.17;10.70;;;1.60;99.90;;;1.79;73.35;96331.84;5048285;28;20060;-46
2021/11/29 05:45:52;;;;;;;23.17;11.20;;;1.60;99.90;;;1.67;73.54;96342.47;5056973;28;20118;-46
2021/11/29 05:48:20;;;;;;;17.03;9.97;;;1.50;99.90;;;1.58;73.20;96344.13;5048045;28;20045;-45
2021/11/29 05:50:48;;;;;;;20.47;11.43;;;1.40;99.90;;;1.66;73.46;96356.56;5040412;28;20063;-46
2021/11/29 05:53:17;;;;;;;20.20;10.80;;;1.50;99.90;;;1.74;73.28;96355.88;5047520;28;20381;-46
2021/11/29 05:55:45;;;;;;;18.00;9.30;;;1.60;99.90;;;1.63;73.12;96358.63;5047439;28;20060;-46
2021/11/29 05:58:13;;;;;;;18.30;10.33;;;1.50;99.90;;;1.58;73.58;96365.09;5048259;28;20059;-47
2021/11/29 06:00:41;;;;;;;19.67;10.63;;;1.40;99.90;;;1.69;73.36;96368.59;5048671;28;20500;-46
2021/11/29 06:03:10;;;;;;;19.83;9.67;;;1.50;99.90;;;1.66;73.11;96369.66;5042764;28;20057;-47
2021/11/29 06:05:38;;;;;;;16.40;9.30;;;1.50;99.90;;;1.62;73.71;96375.34;5047060;28;20057;-45
2021/11/29 06:08:06;;;;;;;20.83;10.73;;;1.50;99.90;;;1.55;73.35;96378.50;5048623;28;20057;-46
2021/11/29 06:10:34;;;;;;;20.80;10.90;;;1.40;99.90;;;1.51;73.72;96386.78;5048473;28;20049;-46
2021/11/29 06:13:02;;;;;;;20.30;10.47;;;1.40;99.90;;;1.66;73.46;96379.34;5047223;28;20331;-46
2021/11/29 06:15:30;;;;;;;16.50;9.10;;;1.50;99.90;;;1.53;74.03;96385.69;5047303;28;20252;-47
2021/11/29 06:17:58;;;;;;;17.93;10.33;;;1.40;99.90;;;1.52;73.94;96394.50;5047264;28;20049;-46
2021/11/29 06:20:26;;;;;;;18.03;9.97;;;1.40;99.90;;;1.40;74.14;96398.22;5048536;28;20429;-46
2021/11/29 06:22:55;;;;;;;17.60;9.43;;;1.30;99.90;;;1.37;73.76;96399.31;5048499;28;20057;-45
2021/11/29 06:25:24;;;;;;;18.27;10.07;;;1.30;99.90;;;1.46;73.62;96408.16;5047299;28;20041;-47
2021/11/29 06:27:54;;;;;;;15.30;10.00;;;1.30;99.90;;;1.53;73.72;96403.19;5047762;28;20060;-45
2021/11/29 06:30:25;;;;;;;15.97;10.23;;;1.40;99.90;;;1.48;73.38;96415.91;5046560;28;20067;-46
2021/11/29 06:32:53;;;;;;;17.73;8.93;;;1.30;99.90;;;1.47;73.70;96412.44;5046521;28;20055;-48
2021/11/29 06:35:21;;;;;;;16.53;9.70;;;1.30;99.90;;;1.52;73.42;96426.00;5047442;28;20057;-46
2021/11/29 06:38:04;;;;;;;16.73;8.37;;;1.40;99.90;;;1.49;73.41;96428.91;5048330;28;20258;-46
2021/11/29 06:40:33;;;;;;;17.87;8.03;;;1.30;99.90;;;1.42;73.15;96434.81;5048894;28;20055;-45
2021/11/29 06:43:02;;;;;;;15.37;8.87;;;1.20;99.90;;;1.37;73.43;96435.19;5046089;28;20056;-46
2021/11/29 06:45:30;;;;;;;13.97;7.93;;;1.20;99.90;;;1.45;73.37;96437.97;5044977;28;20587;-47
2021/11/29 06:47:58;;;;;;;15.87;9.07;;;1.30;99.90;;;1.45;73.30;96442.41;5047899;28;20052;-50
2021/11/29 06:50:26;;;;;;;14.50;8.60;;;1.30;99.90;;;1.41;73.47;96447.06;5047394;28;20063;-49
2021/11/29 06:52:54;;;;;;;16.77;9.80;;;1.20;99.90;;;1.40;73.38;96457.69;5040464;28;20060;-46
2021/11/29 06:55:22;;;;;;;15.00;7.67;;;1.20;99.90;;;1.38;73.33;96461.28;5047208;28;20055;-49
2021/11/29 06:57:50;;;;;;;14.27;9.50;;;1.30;99.90;;;1.41;72.97;96465.44;5047702;28;20056;-49
2021/11/29 07:00:23;;;;;;;15.17;8.67;;;1.30;99.90;;;1.44;73.34;96477.47;5047173;28;20390;-47
2021/11/29 07:02:53;;;;;;;15.67;8.03;;;1.30;99.90;;;1.31;73.11;96472.44;5047091;28;20067;-45
2021/11/29 07:05:22;;;;;;;13.17;7.50;;;1.20;99.90;;;1.32;73.19;96477.56;5046947;28;20051;-45
2021/11/29 07:07:51;;;;;;;11.77;6.93;;;1.20;99.90;;;1.23;73.16;96483.59;5046595;28;20230;-44
2021/11/29 07:10:20;;;;;;;12.17;6.83;;;1.20;99.90;;;1.19;72.83;96482.19;5047561;28;20041;-46
2021/11/29 07:12:49;;;;;;;14.33;6.93;;;1.10;99.90;;;1.31;73.15;96493.41;5046416;28;20059;-48
2021/11/29 07:15:18;;;;;;;12.63;7.27;;;1.10;99.90;;;1.26;73.24;96496.44;5046637;28;20049;-44
2021/11/29 07:17:46;;;;;;;10.07;6.47;;;1.20;99.90;;;1.26;72.71;96500.84;5048367;28;20387;-45
2021/11/29 07:20:15;;;;;;;11.87;6.97;;;1.20;99.90;;;1.38;72.64;96511.13;5052115;28;20048;-44
2021/11/29 07:22:43;;;;;;;10.60;6.47;;;1.30;99.90;;;1.32;72.41;96513.47;5051021;28;20095;-48
2021/11/29 07:25:13;;;;;;;10.90;6.63;;;1.20;99.90;;;1.38;72.69;96521.63;5050690;28;20057;-44
2021/11/29 07:27:42;;;;;;;11.97;6.60;;;1.30;99.90;;;1.34;72.49;96530.72;5043414;28;20057;-49
2021/11/29 07:30:13;;;;;;;10.93;6.33;;;1.20;99.90;;;1.33;72.94;96525.59;5051490;28;20063;-42
2021/11/29 07:32:42;;;;;;;13.73;6.83;;;1.20;99.90;;;1.40;72.43;96531.13;5050917;28;20049;-47
2021/11/29 07:35:11;;;;;;;12.33;7.87;;;1.20;99.90;;;1.47;72.97;96535.72;5051302;28;20045;-45
2021/11/29 07:37:42;;;;;;;11.13;7.00;;;1.30;99.90;;;1.38;72.56;96537.34;5049998;28;20060;-45
2021/11/29 07:40:11;;;;;;;13.73;7.03;;;1.20;99.90;;;1.44;72.41;96533.38;5051826;28;20045;-45
2021/11/29 07:42:39;;;;;;;11.30;6.87;;;1.30;99.90;;;1.51;72.17;96538.91;5044161;28;20063;-45
2021/11/29 07:45:11;;;;;;;14.23;7.07;;;1.40;99.90;;;1.49;72.36;96543.47;5050421;28;20311;-46
2021/11/29 07:47:43;;;;;;;10.27;6.37;;;1.30;99.90;;;1.36;72.47;96555.00;5049050;28;20047;-46
2021/11/29 07:50:15;;;;;;;10.70;6.07;;;1.30;99.90;;;1.30;72.27;96565.16;5051416;28;20059;-46
2021/11/29 07:52:46;;;;;;;11.03;7.20;;;1.20;99.90;;;1.28;72.46;96553.97;5050950;28;20261;-43
2021/11/29 07:55:18;;;;;;;14.30;7.90;;;1.10;99.90;;;1.30;72.65;96563.41;5049186;28;20055;-45
2021/11/29 07:57:45;;;;;;;16.23;7.40;;;1.20;99.90;;;1.35;71.83;96570.88;5050343;28;20277;-46
2021/11/29 08:00:19;;;;;;;13.37;7.03;;;1.20;99.90;;;1.41;71.78;96574.75;5051724;28;20051;-45
2021/11/29 08:02:52;;;;;;;11.32;6.78;;;1.30;99.90;;;1.42;71.84;96579.88;5049120;28;20061;-44
2021/11/29 08:05:22;;;;;;;14.82;7.28;;;1.30;99.90;;;1.45;72.30;96584.84;5049692;28;20060;-47
2021/11/29 08:07:52;;;;;;;12.10;6.87;;;1.30;99.90;;;1.48;72.28;96581.16;5050366;28;20267;-48
2021/11/29 08:10:21;;;;;;;13.33;7.17;;;1.30;99.90;;;1.35;72.21;96586.59;5049716;28;20049;-48
2021/11/29 08:12:50;;;;;;;10.90;6.90;;;1.20;99.90;;;1.37;72.13;96592.56;5049429;28;20057;-47
2021/11/29 08:15:19;;;;;;;14.77;8.03;;;1.20;99.90;;;1.33;71.92;96594.59;5050019;28;20045;-47
2021/11/29 08:17:48;;;;;;;13.57;8.17;;;1.10;99.90;;;1.34;72.05;96601.50;5058194;28;20063;-49
2021/11/29 08:20:19;;;;;;;15.93;8.33;;;1.10;99.90;;;1.35;71.67;96600.53;5050471;28;20057;-50
2021/11/29 08:22:47;;;;;;;15.83;8.50;;;1.20;99.90;;;1.39;72.25;96603.75;5050316;28;20058;-47
2021/11/29 08:25:16;;;;;;;15.70;8.20;;;1.20;99.90;;;1.44;71.95;96604.19;5050042;28;20058;-48
2021/11/29 08:27:45;;;;;;;13.00;6.87;;;1.30;99.90;;;1.46;71.88;96610.13;5048624;28;20506;-47
2021/11/29 08:30:17;;;;;;;12.70;7.40;;;1.30;99.90;;;1.41;72.08;96606.25;5049697;28;20358;-50
2021/11/29 08:32:46;;;;;;;13.37;7.07;;;1.20;99.90;;;1.46;71.77;96612.75;5049587;28;20041;-47
2021/11/29 08:35:16;;;;;;;14.90;7.90;;;1.30;99.90;;;1.53;71.59;96613.06;5049438;28;20059;-49
2021/11/29 08:37:46;;;;;;;13.73;7.50;;;1.30;99.90;;;1.52;71.79;96620.09;5048017;28;20057;-50
2021/11/29 08:40:16;;;;;;;13.83;6.80;;;1.30;99.90;;;1.59;71.61;96625.69;5049779;28;20049;-48
2021/11/29 08:42:45;;;;;;;13.97;7.57;;;1.40;99.90;;;1.58;71.69;96624.81;5058930;28;20063;-49
2021/11/29 08:45:13;;;;;;;15.83;6.70;;;1.40;99.90;;;1.58;71.78;96626.63;5049962;28;20059;-46
2021/11/29 08:47:41;;;;;;;12.40;6.93;;;1.40;99.60;;;1.54;71.79;96627.84;5048128;28;20250;-50
2021/11/29 08:50:10;;;;;;;15.43;7.97;;;1.40;99.60;;;1.54;71.42;96627.84;5049416;28;20243;-47
2021/11/29 08:52:59;;;;;;;11.70;6.53;;;1.40;99.90;;;1.53;71.40;96644.53;5049504;28;20339;-47
2021/11/29 08:55:27;;;;;;;13.23;6.70;;;1.40;99.90;;;1.50;71.57;96640.41;5049898;28;20404;-48
2021/11/29 08:57:56;;;;;;;14.00;5.93;;;1.40;99.70;;;1.50;71.32;96639.56;5041925;28;20248;-50
2021/11/29 09:00:25;;;;;;;9.60;5.77;;;1.40;99.40;;;1.42;71.74;96640.22;5040065;28;20056;-48
2021/11/29 09:02:54;;;;;;;12.93;6.40;;;1.30;99.60;;;1.54;71.49;96648.84;5038680;28;20192;-49
2021/11/29 09:05:23;;;;;;;11.17;5.70;;;1.40;99.90;;;1.54;71.44;96647.03;5037160;28;20047;-46
2021/11/29 09:07:52;;;;;;;12.63;6.10;;;1.50;99.90;;;1.62;71.86;96653.44;5038150;28;20045;-46
2021/11/29 09:10:22;;;;;;;11.97;6.90;;;1.50;99.80;;;1.61;70.99;96657.00;5037449;28;20254;-50
2021/11/29 09:12:51;;;;;;;12.13;6.40;;;1.50;99.60;;;1.61;71.55;96651.75;5038044;28;20057;-48
2021/11/29 09:15:20;;;;;;;10.27;5.83;;;1.50;99.10;;;1.55;71.33;96659.22;5037308;28;20048;-47
2021/11/29 09:17:48;;;;;;;14.03;5.77;;;1.50;99.10;;;1.67;71.42;96667.84;5037694;28;20064;-47
2021/11/29 09:20:21;;;;;;;10.50;5.53;;;1.50;99.40;;;1.60;71.18;96663.22;5036949;28;20251;-48
2021/11/29 09:22:51;;;;;;;13.05;6.03;;;1.50;98.30;;;1.66;71.09;96670.59;5028327;28;20053;-47
2021/11/29 09:25:20;;;;;;;12.80;6.27;;;1.60;98.60;;;1.66;71.20;96675.84;5027980;28;20083;-48
2021/11/29 09:27:49;;;;;;;11.70;6.97;;;1.50;98.90;;;1.68;71.29;96690.47;5029200;28;20045;-48
2021/11/29 09:30:19;;;;;;;13.93;6.10;;;1.60;98.90;;;1.83;71.00;96687.53;5028503;28;20062;-49
2021/11/29 09:32:47;;;;;;;12.20;6.30;;;1.80;98.50;;;1.90;71.07;96680.78;5029505;28;20049;-47
2021/11/29 09:35:17;;;;;;;10.80;6.60;;;1.90;98.00;;;2.01;71.02;96690.38;5028601;28;20045;-47
2021/11/29 09:37:47;;;;;;;10.87;5.63;;;2.00;98.80;;;2.06;70.69;96694.28;5028493;28;20057;-47
2021/11/29 09:40:33;;;;;;;10.70;5.60;;;2.10;97.20;;;2.03;70.18;96698.94;5028578;28;20045;-47
2021/11/29 09:43:09;;;;;;;8.77;5.43;;;2.10;96.30;;;2.05;70.45;96697.84;5028261;28;20053;-47
2021/11/29 09:45:40;;;;;;;9.33;5.00;;;2.00;96.80;;;2.02;70.33;96698.13;5029354;28;20361;-48
2021/11/29 09:48:09;;;;;;;11.33;5.97;;;2.00;97.10;;;2.06;70.86;96698.69;5028600;28;20049;-49
2021/11/29 09:50:42;;;;;;;9.67;5.50;;;1.90;98.80;;;2.06;70.87;96699.53;5028477;28;20056;-49
2021/11/29 09:53:12;;;;;;;10.70;4.87;;;2.00;97.90;;;1.99;70.33;96695.75;5028702;28;20365;-50
2021/11/29 09:55:40;;;;;;;13.20;5.77;;;1.90;97.60;;;2.09;70.91;96708.91;5028741;28;20054;-47
2021/11/29 09:58:09;;;;;;;8.00;5.20;;;2.00;98.70;;;1.99;70.28;96705.44;5010192;28;20149;-47
2021/11/29 10:00:46;;;;;;;6.83;4.47;;;1.90;97.30;;;1.94;70.88;96708.47;5028794;28;20053;-47
2021/11/29 10:03:15;;;;;;;9.37;4.53;;;1.90;98.20;;;1.98;70.54;96712.47;5011138;28;20072;-49
2021/11/29 10:05:44;;;;;;;9.03;4.50;;;2.00;97.90;;;2.05;70.76;96718.84;5027981;28;20061;-49
2021/11/29 10:08:28;;;;;;;7.40;4.73;;;2.10;98.20;;;2.05;70.52;96710.97;5028041;28;20046;-50
2021/11/29 10:11:17;;;;;;;6.63;4.32;;;2.10;97.60;;;1.97;70.07;96710.81;5028717;28;20057;-48
2021/11/29 10:14:04;;;;;;;10.27;4.90;;;2.00;96.70;;;1.95;70.02;96710.94;5028749;28;20047;-48
2021/11/29 10:16:45;;;;;;;8.30;4.53;;;1.90;96.70;;;1.90;70.08;96713.13;5028111;28;20073;-46
2021/11/29 10:19:19;;;;;;;6.80;4.40;;;1.90;96.10;;;1.94;70.16;96724.22;5028775;28;20340;-49
2021/11/29 10:21:47;;;;;;;8.35;4.93;;;1.90;97.20;;;1.80;69.69;96720.09;5027799;28;20057;-49
2021/11/29 10:24:19;;;;;;;8.00;5.10;;;1.90;95.50;;;1.72;70.20;96723.38;5027429;28;20116;-46
2021/11/29 10:26:54;;;;;;;7.63;4.40;;;1.80;96.50;;;1.91;70.19;96725.28;5027774;28;20056;-48
2021/11/29 10:29:27;;;;;;;7.90;5.23;;;2.00;97.30;;;2.08;70.82;96717.78;5027335;28;20049;-49
2021/11/29 10:31:57;;;;;;;10.50;4.70;;;2.10;97.50;;;2.02;69.92;96724.38;5027704;28;20047;-48
2021/11/29 10:34:29;;;;;;;12.27;4.70;;;2.10;95.90;;;2.13;69.95;96734.81;5009970;28;20049;-48